createdAt,value
2019-01-25T00:00:52.186Z,-1.5
2019-01-25T00:01:52.228Z,-1.44
2019-01-25T00:02:52.148Z,-1.44
2019-01-25T00:03:52.205Z,-1.5
2019-01-25T00:04:52.325Z,-1.5
2019-01-25T00:05:52.271Z,-1.5
2019-01-25T00:06:52.162Z,-1.5
2019-01-25T00:07:52.214Z,-1.5
2019-01-25T00:08:52.215Z,-1.5
2019-01-25T00:09:59.159Z,-1.5
2019-01-25T00:10:52.119Z,-1.56
2019-01-25T00:11:52.132Z,-1.56
2019-01-25T00:12:52.141Z,-1.56
2019-01-25T00:13:52.382Z,-1.56
2019-01-25T00:14:52.124Z,-1.56
2019-01-25T00:15:52.095Z,-1.56
2019-01-25T00:16:52.067Z,-1.56
2019-01-25T00:17:52.102Z,-1.62
2019-01-25T00:18:52.162Z,-1.56
2019-01-25T00:19:51.781Z,-1.62
2019-01-25T00:20:52.056Z,-1.56
2019-01-25T00:21:52.179Z,-1.56
2019-01-25T00:22:52.076Z,-1.56
2019-01-25T00:23:52.477Z,-1.62
2019-01-25T00:24:52.395Z,-1.62
2019-01-25T00:25:52.368Z,-1.62
2019-01-25T00:26:52.206Z,-1.56
2019-01-25T00:27:51.982Z,-1.56
2019-01-25T00:28:52.664Z,-1.56
2019-01-25T00:29:52.243Z,-1.5
2019-01-25T00:30:52.287Z,-1.5
2019-01-25T00:31:52.069Z,-1.5
2019-01-25T00:32:52.314Z,-1.5
2019-01-25T00:33:52.153Z,-1.5
2019-01-25T00:34:52.206Z,-1.5
2019-01-25T00:35:52.200Z,-1.5
2019-01-25T00:36:52.589Z,-1.44
2019-01-25T00:37:52.006Z,-1.5
2019-01-25T00:38:52.356Z,-1.5
2019-01-25T00:39:52.197Z,-1.5
2019-01-25T00:40:52.285Z,-1.5
2019-01-25T00:41:52.062Z,-1.44
2019-01-25T00:42:52.417Z,-1.44
2019-01-25T00:43:53.788Z,-1.44
2019-01-25T00:44:52.312Z,-1.37
2019-01-25T00:45:52.291Z,-1.37
2019-01-25T00:46:52.318Z,-1.37
2019-01-25T00:47:52.064Z,-1.37
2019-01-25T00:48:51.982Z,-1.37
2019-01-25T00:49:52.366Z,-1.37
2019-01-25T00:50:52.075Z,-1.37
2019-01-25T00:51:52.279Z,-1.37
2019-01-25T00:52:52.285Z,-1.37
2019-01-25T00:53:52.295Z,-1.31
2019-01-25T00:54:52.024Z,-1.31
2019-01-25T00:55:52.382Z,-1.31
2019-01-25T00:56:52.139Z,-1.31
2019-01-25T00:57:52.117Z,-1.37
2019-01-25T00:58:52.471Z,-1.31
2019-01-25T00:59:52.207Z,-1.37
2019-01-25T01:00:52.067Z,-1.31
2019-01-25T01:01:52.324Z,-1.37
2019-01-25T01:02:51.948Z,-1.31
2019-01-25T01:03:53.785Z,-1.31
2019-01-25T01:04:52.238Z,-1.31
2019-01-25T01:05:52.248Z,-1.31
2019-01-25T01:06:52.147Z,-1.37
2019-01-25T01:07:51.916Z,-1.31
2019-01-25T01:08:51.962Z,-1.37
2019-01-25T01:09:52.357Z,-1.31
2019-01-25T01:10:51.946Z,-1.37
2019-01-25T01:11:51.975Z,-1.31
2019-01-25T01:12:52.088Z,-1.37
2019-01-25T01:13:51.924Z,-1.37
2019-01-25T01:14:52.157Z,-1.37
2019-01-25T01:15:52.012Z,-1.31
2019-01-25T01:16:52.271Z,-1.31
2019-01-25T01:17:52.242Z,-1.37
2019-01-25T01:18:52.226Z,-1.31
2019-01-25T01:19:52.026Z,-1.31
2019-01-25T01:20:53.251Z,-1.31
2019-01-25T01:21:52.357Z,-1.37
2019-01-25T01:22:51.903Z,-1.37
2019-01-25T01:23:53.753Z,-1.37
2019-01-25T01:24:52.417Z,-1.37
2019-01-25T01:25:52.031Z,-1.44
2019-01-25T01:26:52.219Z,-1.44
2019-01-25T01:27:51.888Z,-1.37
2019-01-25T01:28:52.099Z,-1.44
2019-01-25T01:29:52.822Z,-1.37
2019-01-25T01:30:52.128Z,-1.44
2019-01-25T01:31:53.050Z,-1.5
2019-01-25T01:32:53.261Z,-1.5
2019-01-25T01:33:52.315Z,-1.56
2019-01-25T01:34:52.474Z,-1.5
2019-01-25T01:35:52.102Z,-1.56
2019-01-25T01:36:52.314Z,-1.56
2019-01-25T01:37:52.061Z,-1.5
2019-01-25T01:38:51.942Z,-1.5
2019-01-25T01:39:51.968Z,-1.5
2019-01-25T01:40:52.339Z,-1.56
2019-01-25T01:41:52.187Z,-1.5
2019-01-25T01:42:52.111Z,-1.56
2019-01-25T01:43:52.091Z,-1.5
2019-01-25T01:44:51.909Z,-1.56
2019-01-25T01:45:51.873Z,-1.56
2019-01-25T01:46:52.187Z,-1.56
2019-01-25T01:47:52.235Z,-1.56
2019-01-25T01:48:51.904Z,-1.62
2019-01-25T01:49:51.851Z,-1.56
2019-01-25T01:50:52.343Z,-1.56
2019-01-25T01:51:52.288Z,-1.56
2019-01-25T01:52:51.855Z,-1.62
2019-01-25T01:53:51.937Z,-1.62
2019-01-25T01:54:51.912Z,-1.69
2019-01-25T01:55:52.180Z,-1.69
2019-01-25T01:56:52.230Z,-1.69
2019-01-25T01:57:52.187Z,-1.69
2019-01-25T01:58:51.910Z,-1.62
2019-01-25T01:59:51.926Z,-1.62
2019-01-25T02:00:52.010Z,-1.69
2019-01-25T02:01:52.042Z,-1.69
2019-01-25T02:02:51.881Z,-1.69
2019-01-25T02:03:51.874Z,-1.62
2019-01-25T02:04:51.861Z,-1.69
2019-01-25T02:05:51.893Z,-1.62
2019-01-25T02:06:52.198Z,-1.69
2019-01-25T02:07:51.885Z,-1.69
2019-01-25T02:08:52.017Z,-1.69
2019-01-25T02:09:51.939Z,-1.69
2019-01-25T02:10:51.898Z,-1.69
2019-01-25T02:11:51.863Z,-1.69
2019-01-25T02:12:51.865Z,-1.69
2019-01-25T02:13:51.844Z,-1.69
2019-01-25T02:14:51.909Z,-1.69
2019-01-25T02:15:52.314Z,-1.75
2019-01-25T02:16:51.895Z,-1.75
2019-01-25T02:17:51.874Z,-1.75
2019-01-25T02:18:51.857Z,-1.75
2019-01-25T02:19:51.836Z,-1.75
2019-01-25T02:20:51.880Z,-1.81
2019-01-25T02:21:53.466Z,-1.81
2019-01-25T02:22:51.816Z,-1.81
2019-01-25T02:23:51.880Z,-1.81
2019-01-25T02:24:51.925Z,-1.87
2019-01-25T02:25:51.957Z,-1.87
2019-01-25T02:26:51.805Z,-1.87
2019-01-25T02:27:51.839Z,-1.87
2019-01-25T02:28:52.204Z,-1.94
2019-01-25T02:29:52.005Z,-1.94
2019-01-25T02:30:52.014Z,-1.94
2019-01-25T02:31:52.261Z,-1.94
2019-01-25T02:32:52.072Z,-1.94
2019-01-25T02:33:51.820Z,-2
2019-01-25T02:34:52.037Z,-2
2019-01-25T02:35:52.246Z,-2
2019-01-25T02:36:52.082Z,-2
2019-01-25T02:37:51.811Z,-2.06
2019-01-25T02:38:51.896Z,-2.06
2019-01-25T02:39:51.873Z,-2.06
2019-01-25T02:40:52.371Z,-2.06
2019-01-25T02:41:52.190Z,-2.06
2019-01-25T02:42:51.938Z,-2.06
2019-01-25T02:43:52.038Z,-2.06
2019-01-25T02:44:51.825Z,-2.06
2019-01-25T02:45:52.024Z,-2
2019-01-25T02:46:51.782Z,-2.06
2019-01-25T02:47:51.817Z,-2.06
2019-01-25T02:48:51.894Z,-2.06
2019-01-25T02:49:52.123Z,-2.06
2019-01-25T02:50:52.053Z,-2.12
2019-01-25T02:51:52.081Z,-2.06
2019-01-25T02:52:52.045Z,-2.06
2019-01-25T02:53:52.685Z,-2.06
2019-01-25T02:54:51.959Z,-2.06
2019-01-25T02:55:51.828Z,-2.06
2019-01-25T02:56:51.928Z,-2.06
2019-01-25T02:57:51.776Z,-2.12
2019-01-25T02:58:51.836Z,-2.12
2019-01-25T02:59:51.814Z,-2.12
2019-01-25T03:00:51.984Z,-2.06
2019-01-25T03:01:51.800Z,-2.06
2019-01-25T03:02:51.888Z,-2.06
2019-01-25T03:03:51.975Z,-2.06
2019-01-25T03:04:51.946Z,-2.06
2019-01-25T03:05:52.114Z,-2.06
2019-01-25T03:06:52.261Z,-2.06
2019-01-25T03:07:51.871Z,-2.06
2019-01-25T03:08:52.468Z,-2.06
2019-01-25T03:09:52.285Z,-2.12
2019-01-25T03:10:51.887Z,-2.06
2019-01-25T03:11:51.839Z,-2.12
2019-01-25T03:12:51.951Z,-2.06
2019-01-25T03:13:51.859Z,-2.12
2019-01-25T03:14:51.792Z,-2.12
2019-01-25T03:15:51.778Z,-2.12
2019-01-25T03:16:51.832Z,-2.12
2019-01-25T03:17:51.884Z,-2.12
2019-01-25T03:18:51.853Z,-2.12
2019-01-25T03:19:51.857Z,-2.19
2019-01-25T03:20:51.714Z,-2.19
2019-01-25T03:21:51.823Z,-2.12
2019-01-25T03:22:52.092Z,-2.12
2019-01-25T03:23:51.747Z,-2.12
2019-01-25T03:24:51.876Z,-2.19
2019-01-25T03:25:51.995Z,-2.12
2019-01-25T03:26:51.851Z,-2.19
2019-01-25T03:27:52.226Z,-2.12
2019-01-25T03:28:52.057Z,-2.19
2019-01-25T03:29:52.117Z,-2.19
2019-01-25T03:30:51.953Z,-2.19
2019-01-25T03:31:51.837Z,-2.19
2019-01-25T03:32:51.963Z,-2.19
2019-01-25T03:33:52.420Z,-2.19
2019-01-25T03:34:51.731Z,-2.12
2019-01-25T03:35:51.842Z,-2.19
2019-01-25T03:36:51.790Z,-2.12
2019-01-25T03:37:51.785Z,-2.19
2019-01-25T03:38:51.775Z,-2.19
2019-01-25T03:39:51.870Z,-2.12
2019-01-25T03:40:55.802Z,-2.12
2019-01-25T03:41:53.417Z,-2.12
2019-01-25T03:42:52.242Z,-2.19
2019-01-25T03:43:51.775Z,-2.12
2019-01-25T03:44:51.808Z,-2.19
2019-01-25T03:45:52.025Z,-2.12
2019-01-25T03:46:51.899Z,-2.19
2019-01-25T03:47:51.749Z,-2.19
2019-01-25T03:48:51.939Z,-2.12
2019-01-25T03:49:51.787Z,-2.19
2019-01-25T03:50:51.772Z,-2.19
2019-01-25T03:51:51.872Z,-2.19
2019-01-25T03:52:51.698Z,-2.19
2019-01-25T03:53:51.662Z,-2.19
2019-01-25T03:54:51.954Z,-2.19
2019-01-25T03:55:51.709Z,-2.19
2019-01-25T03:56:51.721Z,-2.19
2019-01-25T03:57:51.741Z,-2.19
2019-01-25T03:58:51.855Z,-2.19
2019-01-25T03:59:51.685Z,-2.19
2019-01-25T04:00:51.797Z,-2.19
2019-01-25T04:01:51.749Z,-2.12
2019-01-25T04:02:51.681Z,-2.19
2019-01-25T04:03:51.663Z,-2.19
2019-01-25T04:04:51.744Z,-2.19
2019-01-25T04:05:51.693Z,-2.19
2019-01-25T04:06:51.841Z,-2.19
2019-01-25T04:07:51.723Z,-2.19
2019-01-25T04:08:51.867Z,-2.19
2019-01-25T04:09:51.772Z,-2.19
2019-01-25T04:10:51.784Z,-2.19
2019-01-25T04:11:51.772Z,-2.19
2019-01-25T04:12:51.801Z,-2.19
2019-01-25T04:13:51.941Z,-2.19
2019-01-25T04:14:51.765Z,-2.19
2019-01-25T04:15:52.070Z,-2.19
2019-01-25T04:16:51.726Z,-2.19
2019-01-25T04:17:51.700Z,-2.19
2019-01-25T04:18:52.970Z,-2.19
2019-01-25T04:19:51.816Z,-2.19
2019-01-25T04:20:51.625Z,-2.19
2019-01-25T04:21:51.818Z,-2.19
2019-01-25T04:22:51.984Z,-2.19
2019-01-25T04:23:51.627Z,-2.12
2019-01-25T04:24:51.606Z,-2.19
2019-01-25T04:25:51.632Z,-2.19
2019-01-25T04:26:51.672Z,-2.19
2019-01-25T04:27:51.670Z,-2.19
2019-01-25T04:28:51.948Z,-2.19
2019-01-25T04:29:51.736Z,-2.19
2019-01-25T04:30:51.949Z,-2.19
2019-01-25T04:31:51.810Z,-2.19
2019-01-25T04:32:51.892Z,-2.19
2019-01-25T04:33:51.854Z,-2.19
2019-01-25T04:34:51.595Z,-2.19
2019-01-25T04:35:51.696Z,-2.19
2019-01-25T04:36:51.867Z,-2.19
2019-01-25T04:37:51.899Z,-2.19
2019-01-25T04:38:51.752Z,-2.25
2019-01-25T04:39:51.785Z,-2.25
2019-01-25T04:40:51.953Z,-2.25
2019-01-25T04:41:51.721Z,-2.25
2019-01-25T04:42:51.960Z,-2.25
2019-01-25T04:43:51.722Z,-2.25
2019-01-25T04:44:51.656Z,-2.25
2019-01-25T04:45:51.804Z,-2.19
2019-01-25T04:46:52.377Z,-2.25
2019-01-25T04:47:51.661Z,-2.25
2019-01-25T04:48:51.577Z,-2.25
2019-01-25T04:50:01.313Z,-2.25
2019-01-25T04:50:51.680Z,-2.25
2019-01-25T04:51:51.749Z,-2.25
2019-01-25T04:52:52.926Z,-2.25
2019-01-25T04:53:51.809Z,-2.25
2019-01-25T04:54:51.957Z,-2.25
2019-01-25T04:55:51.732Z,-2.25
2019-01-25T04:56:51.726Z,-2.31
2019-01-25T04:57:51.901Z,-2.25
2019-01-25T04:58:51.594Z,-2.31
2019-01-25T04:59:51.666Z,-2.31
2019-01-25T05:00:51.627Z,-2.31
2019-01-25T05:01:52.478Z,-2.31
2019-01-25T05:02:51.610Z,-2.25
2019-01-25T05:03:51.813Z,-2.31
2019-01-25T05:04:51.669Z,-2.31
2019-01-25T05:05:51.851Z,-2.31
2019-01-25T05:06:51.890Z,-2.31
2019-01-25T05:07:53.525Z,-2.31
2019-01-25T05:08:51.793Z,-2.31
2019-01-25T05:09:51.570Z,-2.31
2019-01-25T05:10:52.271Z,-2.31
2019-01-25T05:11:51.585Z,-2.37
2019-01-25T05:12:53.447Z,-2.44
2019-01-25T05:13:51.720Z,-2.37
2019-01-25T05:14:51.680Z,-2.37
2019-01-25T05:15:51.837Z,-2.44
2019-01-25T05:16:51.857Z,-2.37
2019-01-25T05:17:51.855Z,-2.37
2019-01-25T05:18:51.584Z,-2.37
2019-01-25T05:19:51.644Z,-2.37
2019-01-25T05:20:51.700Z,-2.37
2019-01-25T05:21:51.671Z,-2.31
2019-01-25T05:22:51.747Z,-2.37
2019-01-25T05:23:51.954Z,-2.37
2019-01-25T05:24:51.693Z,-2.37
2019-01-25T05:25:51.810Z,-2.37
2019-01-25T05:26:51.873Z,-2.37
2019-01-25T05:27:51.562Z,-2.37
2019-01-25T05:28:51.858Z,-2.37
2019-01-25T05:29:51.565Z,-2.31
2019-01-25T05:30:52.421Z,-2.31
2019-01-25T05:31:51.634Z,-2.31
2019-01-25T05:32:51.933Z,-2.31
2019-01-25T05:33:51.556Z,-2.31
2019-01-25T05:34:51.764Z,-2.31
2019-01-25T05:35:51.710Z,-2.31
2019-01-25T05:36:51.572Z,-2.31
2019-01-25T05:37:51.872Z,-2.31
2019-01-25T05:38:51.885Z,-2.31
2019-01-25T05:39:51.631Z,-2.31
2019-01-25T05:40:51.763Z,-2.31
2019-01-25T05:41:53.905Z,-2.31
2019-01-25T05:42:56.014Z,-2.31
2019-01-25T05:43:53.812Z,-2.37
2019-01-25T05:44:53.820Z,-2.31
2019-01-25T05:45:56.633Z,-2.31
2019-01-25T05:46:51.697Z,-2.31
2019-01-25T05:47:51.567Z,-2.31
2019-01-25T05:48:51.908Z,-2.31
2019-01-25T05:49:51.576Z,-2.31
2019-01-25T05:50:51.570Z,-2.31
2019-01-25T05:51:51.607Z,-2.31
2019-01-25T05:52:51.620Z,-2.31
2019-01-25T05:53:52.507Z,-2.31
2019-01-25T05:54:51.555Z,-2.25
2019-01-25T05:55:51.799Z,-2.31
2019-01-25T05:56:51.543Z,-2.31
2019-01-25T05:57:51.734Z,-2.31
2019-01-25T05:58:51.557Z,-2.31
2019-01-25T05:59:51.542Z,-2.31
2019-01-25T06:00:51.655Z,-2.25
2019-01-25T06:01:51.658Z,-2.25
2019-01-25T06:02:51.569Z,-2.25
2019-01-25T06:03:51.520Z,-2.25
2019-01-25T06:04:51.529Z,-2.25
2019-01-25T06:05:52.024Z,-2.25
2019-01-25T06:06:51.442Z,-2.25
2019-01-25T06:07:51.497Z,-2.25
2019-01-25T06:08:51.709Z,-2.25
2019-01-25T06:09:51.875Z,-2.19
2019-01-25T06:10:51.686Z,-2.19
2019-01-25T06:11:51.680Z,-2.19
2019-01-25T06:12:51.689Z,-2.19
2019-01-25T06:13:51.702Z,-2.12
2019-01-25T06:14:51.652Z,-2.12
2019-01-25T06:15:51.985Z,-2.06
2019-01-25T06:16:51.899Z,-2.06
2019-01-25T06:17:51.628Z,-2.06
2019-01-25T06:18:52.504Z,-2.06
2019-01-25T06:19:51.596Z,-2.06
2019-01-25T06:20:51.921Z,-2.06
2019-01-25T06:21:51.645Z,-2.12
2019-01-25T06:22:51.606Z,-2.06
2019-01-25T06:23:51.815Z,-2.06
2019-01-25T06:24:51.530Z,-2.06
2019-01-25T06:25:51.571Z,-2
2019-01-25T06:26:51.529Z,-2.06
2019-01-25T06:27:52.073Z,-2
2019-01-25T06:28:51.702Z,-2.06
2019-01-25T06:29:51.709Z,-2
2019-01-25T06:30:52.524Z,-2
2019-01-25T06:31:51.707Z,-1.94
2019-01-25T06:32:51.680Z,-2
2019-01-25T06:33:51.655Z,-2
2019-01-25T06:34:51.506Z,-1.94
2019-01-25T06:35:51.644Z,-2
2019-01-25T06:36:51.800Z,-2
2019-01-25T06:37:51.463Z,-1.94
2019-01-25T06:38:51.448Z,-1.94
2019-01-25T06:39:51.514Z,-1.94
2019-01-25T06:40:51.525Z,-1.94
2019-01-25T06:41:52.659Z,-1.94
2019-01-25T06:42:51.617Z,-1.94
2019-01-25T06:43:51.859Z,-2
2019-01-25T06:44:51.476Z,-1.94
2019-01-25T06:45:51.409Z,-2
2019-01-25T06:46:52.413Z,-2
2019-01-25T06:47:52.043Z,-1.94
2019-01-25T06:48:51.579Z,-1.94
2019-01-25T06:49:51.546Z,-1.94
2019-01-25T06:50:51.907Z,-1.94
2019-01-25T06:51:51.830Z,-1.94
2019-01-25T06:52:51.557Z,-2
2019-01-25T06:53:51.693Z,-2
2019-01-25T06:54:51.385Z,-2
2019-01-25T06:55:51.497Z,-2
2019-01-25T06:56:51.427Z,-2
2019-01-25T06:57:51.615Z,-2
2019-01-25T06:58:51.866Z,-2
2019-01-25T06:59:51.475Z,-2
2019-01-25T07:00:51.769Z,-2
2019-01-25T07:01:51.976Z,-2
2019-01-25T07:02:51.698Z,-2
2019-01-25T07:03:51.457Z,-2
2019-01-25T07:04:53.023Z,-2
2019-01-25T07:05:51.760Z,-2
2019-01-25T07:06:51.448Z,-2
2019-01-25T07:07:51.880Z,-2
2019-01-25T07:08:53.303Z,-2
2019-01-25T07:09:51.902Z,-2
2019-01-25T07:10:51.475Z,-2
2019-01-25T07:11:52.323Z,-2
2019-01-25T07:12:51.406Z,-2
2019-01-25T07:13:51.642Z,-1.94
2019-01-25T07:14:51.415Z,-1.94
2019-01-25T07:15:51.945Z,-1.94
2019-01-25T07:16:51.463Z,-1.94
2019-01-25T07:17:51.271Z,-1.94
2019-01-25T07:18:51.554Z,-1.87
2019-01-25T07:19:51.650Z,-1.87
2019-01-25T07:20:51.467Z,-1.87
2019-01-25T07:21:51.402Z,-1.87
2019-01-25T07:22:51.708Z,-1.87
2019-01-25T07:23:51.407Z,-1.87
2019-01-25T07:24:57.643Z,-1.81
2019-01-25T07:25:51.409Z,-1.87
2019-01-25T07:26:51.330Z,-1.87
2019-01-25T07:27:51.823Z,-1.81
2019-01-25T07:28:51.526Z,-1.87
2019-01-25T07:29:51.422Z,-1.87
2019-01-25T07:30:51.545Z,-1.87
2019-01-25T07:31:51.688Z,-1.87
2019-01-25T07:32:51.462Z,-1.94
2019-01-25T07:33:51.570Z,-1.87
2019-01-25T07:34:51.528Z,-1.87
2019-01-25T07:35:52.134Z,-1.87
2019-01-25T07:36:52.497Z,-1.87
2019-01-25T07:37:51.480Z,-1.87
2019-01-25T07:38:51.372Z,-1.87
2019-01-25T07:39:51.443Z,-1.81
2019-01-25T07:40:51.568Z,-1.81
2019-01-25T07:42:02.731Z,-1.81
2019-01-25T07:42:51.496Z,-1.81
2019-01-25T07:43:51.428Z,-1.81
2019-01-25T07:44:52.284Z,-1.75
2019-01-25T07:45:51.488Z,-1.75
2019-01-25T07:46:51.442Z,-1.75
2019-01-25T07:47:51.615Z,-1.75
2019-01-25T07:48:51.454Z,-1.75
2019-01-25T07:49:51.521Z,-1.75
2019-01-25T07:50:51.338Z,-1.75
2019-01-25T07:51:53.175Z,-1.69
2019-01-25T07:52:51.788Z,-1.75
2019-01-25T07:53:52.083Z,-1.75
2019-01-25T07:54:51.882Z,-1.75
2019-01-25T07:55:51.333Z,-1.75
2019-01-25T07:56:51.592Z,-1.75
2019-01-25T07:57:51.726Z,-1.75
2019-01-25T07:58:51.654Z,-1.75
2019-01-25T07:59:51.570Z,-1.75
2019-01-25T08:00:51.746Z,-1.75
2019-01-25T08:01:51.465Z,-1.75
2019-01-25T08:02:51.458Z,-1.75
2019-01-25T08:03:53.423Z,-1.75
2019-01-25T08:04:52.181Z,-1.75
2019-01-25T08:05:51.570Z,-1.75
2019-01-25T08:06:51.439Z,-1.75
2019-01-25T08:07:51.492Z,-1.69
2019-01-25T08:08:51.726Z,-1.75
2019-01-25T08:09:52.467Z,-1.69
2019-01-25T08:10:51.733Z,-1.75
2019-01-25T08:11:51.563Z,-1.69
2019-01-25T08:12:51.425Z,-1.69
2019-01-25T08:13:51.459Z,-1.62
2019-01-25T08:14:51.787Z,-1.69
2019-01-25T08:15:52.513Z,-1.69
2019-01-25T08:16:54.412Z,-1.62
2019-01-25T08:17:51.651Z,-1.69
2019-01-25T08:18:52.245Z,-1.62
2019-01-25T08:19:51.683Z,-1.62
2019-01-25T08:20:51.457Z,-1.62
2019-01-25T08:21:51.423Z,-1.62
2019-01-25T08:22:51.915Z,-1.62
2019-01-25T08:23:51.366Z,-1.62
2019-01-25T08:24:52.221Z,-1.62
2019-01-25T08:25:52.031Z,-1.62
2019-01-25T08:26:51.835Z,-1.62
2019-01-25T08:27:51.716Z,-1.62
2019-01-25T08:28:51.576Z,-1.62
2019-01-25T08:29:51.441Z,-1.62
2019-01-25T08:30:52.023Z,-1.62
2019-01-25T08:31:52.425Z,-1.62
2019-01-25T08:32:52.328Z,-1.62
2019-01-25T08:33:52.184Z,-1.62
2019-01-25T08:34:51.416Z,-1.56
2019-01-25T08:35:51.541Z,-1.56
2019-01-25T08:36:51.520Z,-1.56
2019-01-25T08:37:51.557Z,-1.62
2019-01-25T08:38:51.691Z,-1.56
2019-01-25T08:39:51.408Z,-1.56
2019-01-25T08:40:51.258Z,-1.56
2019-01-25T08:41:51.694Z,-1.56
2019-01-25T08:42:51.672Z,-1.56
2019-01-25T08:43:51.628Z,-1.56
2019-01-25T08:44:51.405Z,-1.56
2019-01-25T08:45:51.540Z,-1.56
2019-01-25T08:46:51.459Z,-1.56
2019-01-25T08:47:51.688Z,-1.5
2019-01-25T08:48:51.370Z,-1.5
2019-01-25T08:49:58.569Z,-1.5
2019-01-25T08:50:52.075Z,-1.5
2019-01-25T08:51:51.549Z,-1.5
2019-01-25T08:52:52.063Z,-1.5
2019-01-25T08:53:51.369Z,-1.5
2019-01-25T08:54:51.449Z,-1.5
2019-01-25T08:55:51.532Z,-1.56
2019-01-25T08:56:51.613Z,-1.5
2019-01-25T08:57:51.734Z,-1.5
2019-01-25T08:58:51.449Z,-1.5
2019-01-25T08:59:51.444Z,-1.5
2019-01-25T09:00:52.285Z,-1.5
2019-01-25T09:01:51.756Z,-1.5
2019-01-25T09:02:51.194Z,-1.5
2019-01-25T09:03:51.295Z,-1.5
2019-01-25T09:04:51.377Z,-1.5
2019-01-25T09:05:51.369Z,-1.44
2019-01-25T09:06:51.401Z,-1.5
2019-01-25T09:07:51.517Z,-1.37
2019-01-25T09:08:51.611Z,-1.44
2019-01-25T09:09:51.592Z,-1.44
2019-01-25T09:10:51.488Z,-1.44
2019-01-25T09:11:51.228Z,-1.44
2019-01-25T09:12:51.345Z,-1.5
2019-01-25T09:13:51.397Z,-1.44
2019-01-25T09:14:51.635Z,-1.37
2019-01-25T09:15:51.226Z,-1.37
2019-01-25T09:16:51.408Z,-1.37
2019-01-25T09:17:51.448Z,-1.37
2019-01-25T09:18:51.309Z,-1.37
2019-01-25T09:19:51.894Z,-1.37
2019-01-25T09:20:51.330Z,-1.31
2019-01-25T09:21:51.321Z,-1.37
2019-01-25T09:22:51.276Z,-1.37
2019-01-25T09:23:51.642Z,-1.37
2019-01-25T09:24:51.250Z,-1.31
2019-01-25T09:25:52.599Z,-1.31
2019-01-25T09:26:51.203Z,-1.31
2019-01-25T09:27:51.417Z,-1.31
2019-01-25T09:28:51.526Z,-1.37
2019-01-25T09:29:51.256Z,-1.37
2019-01-25T09:30:51.362Z,-1.37
2019-01-25T09:31:51.233Z,-1.37
2019-01-25T09:32:51.177Z,-1.37
2019-01-25T09:33:51.186Z,-1.37
2019-01-25T09:34:51.265Z,-1.31
2019-01-25T09:35:51.250Z,-1.37
2019-01-25T09:36:51.684Z,-1.31
2019-01-25T09:37:51.329Z,-1.31
2019-01-25T09:38:51.246Z,-1.25
2019-01-25T09:39:51.347Z,-1.25
2019-01-25T09:40:52.950Z,-1.25
2019-01-25T09:41:50.943Z,-1.25
2019-01-25T09:42:51.165Z,-1.19
2019-01-25T09:43:51.160Z,-1.19
2019-01-25T09:44:51.232Z,-1.19
2019-01-25T09:45:51.673Z,-1.19
2019-01-25T09:46:51.595Z,-1.19
2019-01-25T09:47:51.436Z,-1.12
2019-01-25T09:48:51.289Z,-1.12
2019-01-25T09:49:51.191Z,-1.06
2019-01-25T09:50:53.262Z,-1
2019-01-25T09:51:51.572Z,-1.06
2019-01-25T09:52:51.488Z,-1
2019-01-25T09:53:52.753Z,-1.06
2019-01-25T09:54:51.575Z,-1
2019-01-25T09:55:51.384Z,-1
2019-01-25T09:56:51.066Z,-1
2019-01-25T09:57:51.154Z,-1
2019-01-25T09:58:51.185Z,-0.94
2019-01-25T09:59:51.474Z,-0.94
2019-01-25T10:00:51.157Z,-1
2019-01-25T10:01:51.716Z,-1
2019-01-25T10:02:51.455Z,-0.94
2019-01-25T10:03:51.091Z,-0.94
2019-01-25T10:04:51.201Z,-0.88
2019-01-25T10:05:51.370Z,-0.88
2019-01-25T10:06:51.468Z,-0.88
2019-01-25T10:07:51.579Z,-0.81
2019-01-25T10:08:51.521Z,-0.81
2019-01-25T10:09:51.460Z,-0.81
2019-01-25T10:10:51.086Z,-0.81
2019-01-25T10:11:51.382Z,-0.81
2019-01-25T10:12:51.084Z,-0.81
2019-01-25T10:13:51.113Z,-0.81
2019-01-25T10:14:51.243Z,-0.81
2019-01-25T10:15:51.126Z,-0.81
2019-01-25T10:16:51.761Z,-0.81
2019-01-25T10:17:51.270Z,-0.81
2019-01-25T10:18:51.150Z,-0.81
2019-01-25T10:19:51.240Z,-0.81
2019-01-25T10:20:51.126Z,-0.81
2019-01-25T10:21:51.019Z,-0.81
2019-01-25T10:22:51.076Z,-0.81
2019-01-25T10:23:51.208Z,-0.81
2019-01-25T10:24:51.089Z,-0.75
2019-01-25T10:25:51.294Z,-0.75
2019-01-25T10:26:51.835Z,-0.69
2019-01-25T10:27:51.860Z,-0.69
2019-01-25T10:28:51.537Z,-0.69
2019-01-25T10:29:51.716Z,-0.75
2019-01-25T10:30:51.135Z,-0.69
2019-01-25T10:31:51.212Z,-0.69
2019-01-25T10:32:51.429Z,-0.69
2019-01-25T10:33:52.913Z,-0.62
2019-01-25T10:34:52.852Z,-0.62
2019-01-25T10:35:51.327Z,-0.62
2019-01-25T10:36:51.555Z,-0.62
2019-01-25T10:37:51.330Z,-0.62
2019-01-25T10:38:51.290Z,-0.62
2019-01-25T10:39:51.481Z,-0.56
2019-01-25T10:40:51.260Z,-0.62
2019-01-25T10:41:51.162Z,-0.62
2019-01-25T10:42:54.086Z,-0.62
2019-01-25T10:43:51.147Z,-0.62
2019-01-25T10:44:51.544Z,-0.56
2019-01-25T10:45:51.133Z,-0.62
2019-01-25T10:46:52.655Z,-0.62
2019-01-25T10:47:51.431Z,-0.62
2019-01-25T10:48:51.438Z,-0.56
2019-01-25T10:49:51.323Z,-0.56
2019-01-25T10:50:52.887Z,-0.56
2019-01-25T10:52:51.264Z,-0.56
2019-01-25T10:53:51.159Z,-0.5
2019-01-25T10:54:51.456Z,-0.56
2019-01-25T10:55:51.125Z,-0.5
2019-01-25T10:56:51.503Z,-0.5
2019-01-25T10:57:51.479Z,-0.56
2019-01-25T10:58:51.036Z,-0.5
2019-01-25T10:59:51.200Z,-0.5
2019-01-25T11:00:51.769Z,-0.5
2019-01-25T11:01:51.288Z,-0.5
2019-01-25T11:02:58.859Z,-0.44
2019-01-25T11:03:51.184Z,-0.44
2019-01-25T11:04:51.261Z,-0.44
2019-01-25T11:05:51.074Z,-0.37
2019-01-25T11:06:51.369Z,-0.37
2019-01-25T11:07:51.288Z,-0.37
2019-01-25T11:08:51.042Z,-0.37
2019-01-25T11:09:51.005Z,-0.31
2019-01-25T11:10:51.309Z,-0.37
2019-01-25T11:11:51.671Z,-0.31
2019-01-25T11:12:51.089Z,-0.31
2019-01-25T11:13:51.235Z,-0.25
2019-01-25T11:14:51.120Z,-0.25
2019-01-25T11:15:51.266Z,-0.19
2019-01-25T11:16:51.127Z,-0.25
2019-01-25T11:17:51.181Z,-0.25
2019-01-25T11:18:51.196Z,-0.19
2019-01-25T11:19:51.183Z,-0.19
2019-01-25T11:20:51.128Z,-0.19
2019-01-25T11:21:51.407Z,-0.19
2019-01-25T11:22:51.170Z,-0.13
2019-01-25T11:23:51.722Z,-0.19
2019-01-25T11:24:51.281Z,-0.13
2019-01-25T11:25:50.995Z,-0.13
2019-01-25T11:26:51.356Z,-0.13
2019-01-25T11:27:50.978Z,-0.13
2019-01-25T11:28:51.242Z,-0.13
2019-01-25T11:29:51.835Z,-0.06
2019-01-25T11:30:51.205Z,-0.13
2019-01-25T11:31:51.199Z,-0.06
2019-01-25T11:32:51.085Z,-0.06
2019-01-25T11:33:51.124Z,-0.06
2019-01-25T11:34:50.990Z,-0.06
2019-01-25T11:35:51.254Z,-0.06
2019-01-25T11:36:51.085Z,-0.06
2019-01-25T11:37:51.268Z,0
2019-01-25T11:38:51.119Z,0
2019-01-25T11:39:51.096Z,0
2019-01-25T11:40:50.989Z,0.06
2019-01-25T11:41:51.512Z,0.06
2019-01-25T11:42:51.159Z,0.06
2019-01-25T11:43:51.660Z,0.13
2019-01-25T11:44:51.197Z,0.06
2019-01-25T11:45:54.695Z,0.13
2019-01-25T11:46:51.080Z,0.13
2019-01-25T11:47:50.940Z,0.13
2019-01-25T11:48:51.168Z,0.19
2019-01-25T11:49:51.415Z,0.13
2019-01-25T11:50:51.184Z,0.19
2019-01-25T11:51:51.222Z,0.19
2019-01-25T11:52:50.938Z,0.25
2019-01-25T11:53:51.539Z,0.19
2019-01-25T11:54:51.041Z,0.19
2019-01-25T11:55:51.135Z,0.25
2019-01-25T11:56:50.923Z,0.25
2019-01-25T11:57:50.936Z,0.25
2019-01-25T11:58:50.475Z,0.25
2019-01-25T11:59:51.276Z,0.25
2019-01-25T12:00:51.076Z,0.25
2019-01-25T12:02:51.409Z,0.31
2019-01-25T12:03:51.390Z,0.31
2019-01-25T12:04:51.106Z,0.31
2019-01-25T12:05:51.204Z,0.31
2019-01-25T12:06:50.916Z,0.37
2019-01-25T12:07:51.231Z,0.37
2019-01-25T12:08:51.120Z,0.37
2019-01-25T12:09:51.243Z,0.31
2019-01-25T12:10:51.024Z,0.31
2019-01-25T12:11:50.901Z,0.31
2019-01-25T12:12:51.072Z,0.31
2019-01-25T12:13:51.281Z,0.31
2019-01-25T12:14:51.298Z,0.31
2019-01-25T12:15:51.689Z,0.31
2019-01-25T12:16:51.010Z,0.25
2019-01-25T12:17:50.944Z,0.37
2019-01-25T12:18:51.224Z,0.37
2019-01-25T12:19:51.311Z,0.37
2019-01-25T12:20:51.526Z,0.37
2019-01-25T12:21:51.452Z,0.37
2019-01-25T12:22:52.676Z,0.44
2019-01-25T12:23:51.230Z,0.44
2019-01-25T12:24:51.855Z,0.44
2019-01-25T12:25:51.249Z,0.44
2019-01-25T12:26:50.989Z,0.44
2019-01-25T12:27:51.161Z,0.44
2019-01-25T12:28:51.150Z,0.5
2019-01-25T12:29:51.054Z,0.5
2019-01-25T12:30:51.721Z,0.5
2019-01-25T12:31:51.311Z,0.56
2019-01-25T12:32:51.274Z,0.5
2019-01-25T12:33:50.992Z,0.56
2019-01-25T12:34:50.969Z,0.5
2019-01-25T12:35:50.964Z,0.56
2019-01-25T12:36:50.919Z,0.62
2019-01-25T12:37:51.319Z,0.56
2019-01-25T12:38:51.360Z,0.62
2019-01-25T12:39:50.924Z,0.62
2019-01-25T12:40:50.916Z,0.62
2019-01-25T12:41:51.154Z,0.62
2019-01-25T12:42:51.265Z,0.62
2019-01-25T12:43:50.856Z,0.69
2019-01-25T12:44:51.337Z,0.69
2019-01-25T12:45:50.878Z,0.69
2019-01-25T12:46:50.859Z,0.75
2019-01-25T12:47:50.862Z,0.75
2019-01-25T12:48:50.912Z,0.75
2019-01-25T12:49:50.847Z,0.75
2019-01-25T12:50:50.853Z,0.75
2019-01-25T12:51:50.801Z,0.75
2019-01-25T12:52:52.127Z,0.75
2019-01-25T12:53:51.161Z,0.75
2019-01-25T12:54:51.047Z,0.75
2019-01-25T12:55:50.960Z,0.75
2019-01-25T12:56:50.844Z,0.75
2019-01-25T12:57:50.906Z,0.75
2019-01-25T12:58:50.860Z,0.81
2019-01-25T12:59:50.798Z,0.81
2019-01-25T13:00:51.370Z,0.75
2019-01-25T13:01:51.560Z,0.88
2019-01-25T13:02:51.096Z,0.81
2019-01-25T13:03:50.831Z,0.88
2019-01-25T13:04:51.009Z,0.81